Time;durP1;ratioP1;P1;durP2;ratioP2;P2;SDS_P1;SDS_P2;PMS_P1;PMS_P2;Temp;Humidity;BMP_temperature;BMP_pressure;BME280_temperature;BME280_humidity;BME280_pressure;Samples;Min_cycle;Max_cycle;Signal;HPM_P1;HPM_P2
2022/10/22 00:01:40;;;;;;;;;;;;;;;18.41;41.32;95982.41;6102101;19;1017;-66
2022/10/22 00:03:43;;;;;;;;;;;;;;;18.41;41.70;95977.06;6121278;19;1072;-64
2022/10/22 00:05:49;;;;;;;;;;;;;;;18.40;41.43;95981.56;6120398;19;1310;-64
2022/10/22 00:07:53;;;;;;;;;;;;;;;18.40;41.62;95980.75;6119993;19;1065;-64
2022/10/22 00:09:56;;;;;;;;;;;;;;;18.39;41.38;95973.78;6121355;19;958;-65
2022/10/22 00:12:00;;;;;;;;;;;;;;;18.40;41.61;95981.56;6101898;19;1054;-65
2022/10/22 00:14:03;;;;;;;;;;;;;;;18.39;41.33;95974.59;6120562;19;1152;-64
2022/10/22 00:16:07;;;;;;;;;;;;;;;18.39;41.35;95977.25;6119524;19;1815;-64
2022/10/22 00:18:10;;;;;;;;;;;;;;;18.39;41.58;95979.94;6121028;19;1066;-64
2022/10/22 00:20:13;;;;;;;;;;;;;;;18.39;41.25;95985.25;6120489;19;1045;-66
2022/10/22 00:22:19;;;;;;;;;;;;;;;18.39;41.44;95984.41;6120857;19;1030;-65
2022/10/22 00:24:23;;;;;;;;;;;;;;;18.39;41.33;95973.78;6102006;19;1091;-65
2022/10/22 00:26:26;;;;;;;;;;;;;;;18.39;41.40;95979.94;6120761;19;1048;-65
2022/10/22 00:28:29;;;;;;;;;;;;;;;18.39;41.29;95981.75;6119240;19;1466;-64
2022/10/22 00:30:33;;;;;;;;;;;;;;;18.38;41.29;95978.28;6120333;19;963;-65
2022/10/22 00:32:36;;;;;;;;;;;;;;;18.39;41.67;95982.59;6119220;19;1470;-64
2022/10/22 00:34:39;;;;;;;;;;;;;;;18.38;41.33;95970.28;6101635;19;1403;-68
2022/10/22 00:36:43;;;;;;;;;;;;;;;18.38;41.50;95967.63;6118413;19;1834;-65
2022/10/22 00:38:49;;;;;;;;;;;;;;;18.38;41.50;95962.31;6120037;19;1060;-64
2022/10/22 00:40:52;;;;;;;;;;;;;;;18.38;41.37;95964.13;6120133;19;1033;-64
2022/10/22 00:42:55;;;;;;;;;;;;;;;18.38;41.44;95957.00;6120055;19;1140;-64
2022/10/22 00:45:05;;;;;;;;;;;;;;;18.37;41.41;95955.31;6119612;19;1046;-64
2022/10/22 00:47:08;;;;;;;;;;;;;;;18.37;41.55;95957.16;6101379;19;1309;-64
2022/10/22 00:49:12;;;;;;;;;;;;;;;18.38;41.67;95958.78;6119997;19;1020;-64
2022/10/22 00:51:15;;;;;;;;;;;;;;;18.36;41.25;95945.69;6119313;19;1036;-65
2022/10/22 00:53:20;;;;;;;;;;;;;;;18.37;41.47;95960.63;6119226;19;1085;-64
2022/10/22 00:55:27;;;;;;;;;;;;;;;18.37;41.18;95957.97;6119785;19;1052;-65
2022/10/22 00:57:30;;;;;;;;;;;;;;;18.36;41.30;95959.00;6099369;19;1845;-65
2022/10/22 00:59:34;;;;;;;;;;;;;;;18.37;41.59;95959.81;6117957;19;1119;-65
2022/10/22 01:01:37;;;;;;;;;;;;;;;18.36;41.42;95959.00;6118317;19;1132;-64
2022/10/22 01:03:41;;;;;;;;;;;;;;;18.36;41.44;95956.31;6119805;19;1056;-66
2022/10/22 01:05:45;;;;;;;;;;;;;;;18.36;41.56;95955.50;6118932;19;1388;-64
2022/10/22 01:07:50;;;;;;;;;;;;;;;18.36;41.60;95953.66;6118214;19;1120;-64
2022/10/22 01:10:00;;;;;;;;;;;;;;;18.36;41.27;95943.03;6099647;19;1456;-65
2022/10/22 01:12:10;;;;;;;;;;;;;;;18.36;41.63;95943.03;6117647;19;1482;-64
2022/10/22 01:14:19;;;;;;;;;;;;;;;18.35;41.24;95936.03;6119574;19;1028;-64
2022/10/22 01:16:27;;;;;;;;;;;;;;;18.36;41.63;95927.06;6118603;19;1834;-64
2022/10/22 01:18:34;;;;;;;;;;;;;;;18.35;41.36;95925.38;6119639;19;969;-64
2022/10/22 01:20:47;;;;;;;;;;;;;;;18.35;41.56;95920.06;6100324;19;1139;-64
2022/10/22 01:22:56;;;;;;;;;;;;;;;18.33;41.31;95914.94;6119328;19;973;-65
2022/10/22 01:25:01;;;;;;;;;;;;;;;18.35;41.22;95913.91;6118659;19;1229;-65
2022/10/22 01:27:23;;;;;;;;;;;;;;;18.34;41.53;95923.72;6119267;19;1073;-68
2022/10/22 01:29:31;;;;;;;;;;;;;;;18.34;41.21;95921.06;6118163;19;1034;-68
2022/10/22 01:31:36;;;;;;;;;;;;;;;18.33;41.64;95914.09;6094241;19;1348;-67
2022/10/22 01:33:40;;;;;;;;;;;;;;;18.32;41.55;95910.63;6118074;19;1085;-68
2022/10/22 01:35:46;;;;;;;;;;;;;;;18.34;41.65;95913.09;6118116;19;1135;-68
2022/10/22 01:37:51;;;;;;;;;;;;;;;18.33;41.22;95912.28;6117883;19;1005;-68
2022/10/22 01:39:54;;;;;;;;;;;;;;;18.33;41.46;95900.81;6118037;19;941;-68
2022/10/22 01:41:58;;;;;;;;;;;;;;;18.33;41.35;95891.00;6116609;19;1151;-67
2022/10/22 01:44:02;;;;;;;;;;;;;;;18.33;41.36;95895.47;6097693;19;1259;-70
2022/10/22 01:46:08;;;;;;;;;;;;;;;18.32;41.29;95891.16;6117610;19;1194;-68
2022/10/22 01:48:28;;;;;;;;;;;;;;;18.32;41.55;95889.34;6118000;19;1020;-68
2022/10/22 01:50:42;;;;;;;;;;;;;;;18.31;41.16;95895.66;6118062;19;1069;-67
2022/10/22 01:52:54;;;;;;;;;;;;;;;18.32;41.24;95893.81;6115715;19;1400;-68
2022/10/22 01:55:04;;;;;;;;;;;;;;;18.32;41.58;95891.16;6094721;19;1056;-64
2022/10/22 01:57:10;;;;;;;;;;;;;;;18.32;41.46;95897.31;6117160;19;1834;-65
2022/10/22 01:59:21;;;;;;;;;;;;;;;18.31;41.54;95900.16;6117799;19;1124;-65
2022/10/22 02:01:33;;;;;;;;;;;;;;;18.33;41.28;95906.13;6118641;19;1028;-65
2022/10/22 02:03:38;;;;;;;;;;;;;;;18.32;41.14;95904.44;6118224;19;1167;-65
2022/10/22 02:05:44;;;;;;;;;;;;;;;18.32;41.56;95907.09;6098292;19;1330;-65
2022/10/22 02:07:51;;;;;;;;;;;;;;;18.32;41.36;95899.13;6116384;19;1057;-64
2022/10/22 02:09:55;;;;;;;;;;;;;;;18.32;41.19;95904.44;6118166;19;1068;-65
2022/10/22 02:11:59;;;;;;;;;;;;;;;18.32;41.23;95904.44;6120341;19;1128;-64
2022/10/22 02:14:04;;;;;;;;;;;;;;;18.32;41.25;95907.09;6123646;19;1160;-65
2022/10/22 02:16:09;;;;;;;;;;;;;;;18.30;41.33;95911.81;6120072;19;2337;-65
2022/10/22 02:18:16;;;;;;;;;;;;;;;18.30;41.54;95915.28;6113098;19;1268;-65
2022/10/22 02:20:21;;;;;;;;;;;;;;;18.30;41.19;95909.97;6123913;19;1119;-65
2022/10/22 02:22:25;;;;;;;;;;;;;;;18.30;41.22;95901.97;6123776;19;953;-65
2022/10/22 02:24:29;;;;;;;;;;;;;;;18.30;41.20;95906.47;6124012;19;1049;-66
2022/10/22 02:26:35;;;;;;;;;;;;;;;18.30;41.18;95901.97;6123966;19;1056;-64
2022/10/22 02:28:41;;;;;;;;;;;;;;;18.30;41.26;95906.47;6103809;19;1050;-65
2022/10/22 02:30:46;;;;;;;;;;;;;;;18.29;41.27;95902.13;6123751;19;1081;-64
2022/10/22 02:32:51;;;;;;;;;;;;;;;18.30;41.32;95895.84;6123216;19;982;-65
2022/10/22 02:34:58;;;;;;;;;;;;;;;18.30;41.16;95890.50;6123538;19;1005;-65
2022/10/22 02:37:03;;;;;;;;;;;;;;;18.28;41.56;95896.00;6122622;19;1849;-64
2022/10/22 02:39:08;;;;;;;;;;;;;;;18.29;41.16;95907.47;6113825;19;1057;-65
2022/10/22 02:41:12;;;;;;;;;;;;;;;18.28;41.58;95909.31;6114336;19;1535;-65
2022/10/22 02:43:15;;;;;;;;;;;;;;;18.29;41.52;95915.44;6123572;19;1008;-65
2022/10/22 02:45:19;;;;;;;;;;;;;;;18.28;41.59;95913.78;6123731;19;1026;-65
2022/10/22 02:47:22;;;;;;;;;;;;;;;18.28;41.18;95903.16;6123320;19;1036;-64
2022/10/22 02:49:26;;;;;;;;;;;;;;;18.28;41.54;95917.28;6123549;19;1617;-65
2022/10/22 02:51:32;;;;;;;;;;;;;;;18.29;41.51;95923.44;6102879;19;1178;-65
2022/10/22 02:53:35;;;;;;;;;;;;;;;18.29;41.58;95926.09;6122994;19;1072;-64
2022/10/22 02:55:39;;;;;;;;;;;;;;;18.28;41.25;95925.25;6123221;19;1048;-64
2022/10/22 02:57:42;;;;;;;;;;;;;;;18.27;41.38;95917.47;6121862;19;1830;-65
2022/10/22 02:59:45;;;;;;;;;;;;;;;18.27;41.24;95912.97;6123225;19;1016;-65
2022/10/22 03:01:49;;;;;;;;;;;;;;;18.27;41.45;95917.47;6113580;19;992;-65
2022/10/22 03:03:52;;;;;;;;;;;;;;;18.28;41.31;95919.13;6113049;19;1484;-64
2022/10/22 03:05:56;;;;;;;;;;;;;;;18.27;41.59;95920.13;6121034;19;1385;-65
2022/10/22 03:08:01;;;;;;;;;;;;;;;18.26;41.41;95921.94;6121308;19;1057;-64
2022/10/22 03:10:05;;;;;;;;;;;;;;;18.27;41.57;95920.97;6120827;19;1403;-64
2022/10/22 03:12:08;;;;;;;;;;;;;;;18.26;41.60;95921.94;6122506;19;1060;-64
2022/10/22 03:14:12;;;;;;;;;;;;;;;18.27;41.59;95922.78;6102726;19;1045;-65
2022/10/22 03:16:15;;;;;;;;;;;;;;;18.25;41.39;95919.47;6122350;19;1049;-64
2022/10/22 03:18:19;;;;;;;;;;;;;;;18.26;41.44;95921.13;6120732;19;1817;-64
2022/10/22 03:20:22;;;;;;;;;;;;;;;18.25;41.56;95916.81;6122365;19;970;-65
2022/10/22 03:22:28;;;;;;;;;;;;;;;18.26;41.42;95918.47;6122531;19;1049;-65
2022/10/22 03:24:36;;;;;;;;;;;;;;;18.26;41.13;95921.13;6110875;19;1093;-65
2022/10/22 03:26:41;;;;;;;;;;;;;;;18.26;41.61;95913.13;6112182;19;1350;-64
2022/10/22 03:28:45;;;;;;;;;;;;;;;18.25;41.53;95911.50;6121653;19;1052;-64
2022/10/22 03:30:48;;;;;;;;;;;;;;;18.25;41.31;95909.66;6122462;19;967;-65
2022/10/22 03:32:52;;;;;;;;;;;;;;;18.24;41.33;95900.03;6122100;19;970;-65
2022/10/22 03:34:55;;;;;;;;;;;;;;;18.25;41.49;95898.19;6121559;19;1052;-64
2022/10/22 03:37:00;;;;;;;;;;;;;;;18.24;41.49;95907.16;6101743;19;1838;-64
2022/10/22 03:39:04;;;;;;;;;;;;;;;18.24;41.15;95904.50;6122271;19;1042;-65
2022/10/22 03:41:10;;;;;;;;;;;;;;;18.24;41.41;95907.16;6121641;19;1169;-65
2022/10/22 03:43:13;;;;;;;;;;;;;;;18.24;41.47;95909.81;6121415;19;1017;-66
2022/10/22 03:45:17;;;;;;;;;;;;;;;18.23;41.15;95898.34;6122212;19;1062;-64
2022/10/22 03:47:23;;;;;;;;;;;;;;;18.24;41.60;95901.84;6109577;19;1631;-65
2022/10/22 03:49:26;;;;;;;;;;;;;;;18.23;41.40;95897.53;6112042;19;1036;-64
2022/10/22 03:51:30;;;;;;;;;;;;;;;18.23;41.42;95890.38;6121122;19;1021;-65
2022/10/22 03:53:33;;;;;;;;;;;;;;;18.24;41.26;95891.19;6121551;19;1028;-65
2022/10/22 03:55:37;;;;;;;;;;;;;;;18.24;41.51;95899.19;6121462;19;1347;-65
2022/10/22 03:57:43;;;;;;;;;;;;;;;18.23;41.26;95902.84;6119952;19;1838;-64
2022/10/22 03:59:47;;;;;;;;;;;;;;;18.22;41.53;95904.69;6100005;19;1457;-65
2022/10/22 04:01:50;;;;;;;;;;;;;;;18.23;41.59;95913.50;6120919;19;1073;-65
2022/10/22 04:03:54;;;;;;;;;;;;;;;18.22;41.51;95909.19;6121167;19;1057;-65
2022/10/22 04:06:02;;;;;;;;;;;;;;;18.23;41.37;95905.50;6119852;19;1282;-64
2022/10/22 04:08:05;;;;;;;;;;;;;;;18.23;41.29;95905.50;6119817;19;1139;-64
2022/10/22 04:10:09;;;;;;;;;;;;;;;18.22;41.51;95903.88;6111035;19;1211;-64
2022/10/22 04:12:12;;;;;;;;;;;;;;;18.22;41.25;95904.69;6110894;19;1021;-65
2022/10/22 04:14:19;;;;;;;;;;;;;;;18.23;41.54;95905.50;6120723;19;1021;-64
2022/10/22 04:16:23;;;;;;;;;;;;;;;18.21;41.19;95908.34;6120532;19;1044;-65
2022/10/22 04:18:26;;;;;;;;;;;;;;;18.22;41.43;95903.88;6119091;19;1850;-65
2022/10/22 04:20:30;;;;;;;;;;;;;;;18.21;41.50;95896.88;6120136;19;1061;-64
2022/10/22 04:22:34;;;;;;;;;;;;;;;18.20;41.40;95901.38;6101927;19;1055;-66
2022/10/22 04:24:38;;;;;;;;;;;;;;;18.21;41.27;95907.50;6120408;19;1140;-65
2022/10/22 04:26:41;;;;;;;;;;;;;;;18.20;41.58;95896.03;6120189;19;1116;-66
2022/10/22 04:28:45;;;;;;;;;;;;;;;18.20;41.19;95893.38;6120405;19;1104;-64
2022/10/22 04:30:51;;;;;;;;;;;;;;;18.20;41.26;95890.72;6120649;19;1021;-65
2022/10/22 04:32:54;;;;;;;;;;;;;;;18.20;41.23;95896.03;6110449;19;1152;-64
2022/10/22 04:34:58;;;;;;;;;;;;;;;18.19;41.54;95883.75;6109789;19;1159;-65
2022/10/22 04:37:02;;;;;;;;;;;;;;;18.20;41.53;95887.25;6119946;19;1837;-64
2022/10/22 04:39:05;;;;;;;;;;;;;;;18.20;41.42;95889.91;6120586;19;1025;-64
2022/10/22 04:41:12;;;;;;;;;;;;;;;18.19;41.16;95891.75;6120569;19;1032;-65
2022/10/22 04:43:15;;;;;;;;;;;;;;;18.19;41.58;95890.91;6119693;19;1063;-64
2022/10/22 04:45:19;;;;;;;;;;;;;;;18.19;41.27;95904.22;6100691;19;1326;-64
2022/10/22 04:47:25;;;;;;;;;;;;;;;18.19;41.61;95904.22;6120080;19;1072;-65
2022/10/22 04:49:28;;;;;;;;;;;;;;;18.19;41.38;95897.06;6119734;19;1143;-65
2022/10/22 04:51:31;;;;;;;;;;;;;;;18.19;41.25;95896.22;6120228;19;1058;-64
2022/10/22 04:53:35;;;;;;;;;;;;;;;18.19;41.23;95894.41;6120397;19;1024;-65
2022/10/22 04:55:38;;;;;;;;;;;;;;;18.19;41.21;95886.41;6110496;19;1018;-65
2022/10/22 04:57:42;;;;;;;;;;;;;;;18.19;41.37;95893.56;6109635;19;1854;-64
2022/10/22 04:59:45;;;;;;;;;;;;;;;18.19;41.43;95898.91;6120334;19;1051;-64
2022/10/22 05:01:48;;;;;;;;;;;;;;;18.19;41.29;95901.56;6120016;19;1123;-65
2022/10/22 05:03:58;;;;;;;;;;;;;;;18.18;41.28;95902.53;6118039;19;1029;-65
2022/10/22 05:06:02;;;;;;;;;;;;;;;18.19;41.37;95909.53;6118264;19;1403;-64
2022/10/22 05:08:05;;;;;;;;;;;;;;;18.18;41.13;95902.53;6099221;19;1061;-65
2022/10/22 05:10:09;;;;;;;;;;;;;;;18.18;41.46;95903.38;6119798;19;1060;-64
2022/10/22 05:12:13;;;;;;;;;;;;;;;18.18;41.28;95902.53;6119057;19;1052;-64
2022/10/22 05:14:17;;;;;;;;;;;;;;;18.17;41.34;95909.69;6119464;19;1048;-65
2022/10/22 05:16:21;;;;;;;;;;;;;;;18.18;41.21;95913.19;6119091;19;1064;-64
2022/10/22 05:18:24;;;;;;;;;;;;;;;18.18;41.48;95921.16;6107355;19;1846;-65
2022/10/22 05:20:30;;;;;;;;;;;;;;;18.18;41.31;95929.13;6111832;19;1364;-65
2022/10/22 05:22:34;;;;;;;;;;;;;;;18.17;41.57;95928.31;6119091;19;1128;-65
2022/10/22 05:24:38;;;;;;;;;;;;;;;18.18;41.30;95927.34;6119155;19;1045;-64
2022/10/22 05:26:41;;;;;;;;;;;;;;;18.17;41.50;95924.84;6118753;19;1119;-65
2022/10/22 05:28:45;;;;;;;;;;;;;;;18.18;41.58;95926.47;6119498;19;1052;-65
2022/10/22 05:30:54;;;;;;;;;;;;;;;18.17;41.25;95928.31;6099773;19;1089;-66
2022/10/22 05:32:58;;;;;;;;;;;;;;;18.17;41.13;95924.84;6119115;19;1107;-64
2022/10/22 05:35:01;;;;;;;;;;;;;;;18.16;41.43;95924.00;6118754;19;1040;-65
2022/10/22 05:37:07;;;;;;;;;;;;;;;18.18;41.35;95929.13;6118818;19;1036;-64
2022/10/22 05:39:10;;;;;;;;;;;;;;;18.16;41.50;95932.00;6117886;19;1863;-64
2022/10/22 05:41:14;;;;;;;;;;;;;;;18.16;41.44;95931.16;6103147;19;1340;-65
2022/10/22 05:43:18;;;;;;;;;;;;;;;18.17;41.18;95930.97;6117802;19;1372;-65
2022/10/22 05:45:21;;;;;;;;;;;;;;;18.17;41.09;95935.47;6119090;19;1384;-64
2022/10/22 05:47:25;;;;;;;;;;;;;;;18.16;41.30;95936.47;6122736;19;1057;-64
2022/10/22 05:49:28;;;;;;;;;;;;;;;18.16;41.50;95939.16;6125152;19;970;-64
2022/10/22 05:51:33;;;;;;;;;;;;;;;18.17;41.09;95938.13;6124521;19;1103;-64
2022/10/22 05:53:40;;;;;;;;;;;;;;;18.15;41.42;95924.16;6105158;19;1197;-65
2022/10/22 05:55:43;;;;;;;;;;;;;;;18.16;41.39;95921.34;6124503;19;1006;-64
2022/10/22 05:57:48;;;;;;;;;;;;;;;18.16;41.55;95923.19;6124271;19;1853;-64
2022/10/22 05:59:51;;;;;;;;;;;;;;;18.16;41.52;95928.50;6124668;19;1025;-64
2022/10/22 06:01:54;;;;;;;;;;;;;;;18.17;41.31;95932.81;6121440;19;1529;-64
2022/10/22 06:03:58;;;;;;;;;;;;;;;18.17;41.43;95932.81;6107438;19;1076;-66
2022/10/22 06:06:02;;;;;;;;;;;;;;;18.16;41.19;95925.84;6122479;19;1340;-64
2022/10/22 06:08:06;;;;;;;;;;;;;;;18.16;41.56;95925.84;6122985;19;1104;-64
2022/10/22 06:10:16;;;;;;;;;;;;;;;18.16;41.38;95929.31;6124754;19;958;-65
2022/10/22 06:12:19;;;;;;;;;;;;;;;18.17;41.48;95944.28;6121971;19;1440;-65
2022/10/22 06:14:23;;;;;;;;;;;;;;;18.17;41.09;95938.13;6124144;19;1053;-65
2022/10/22 06:16:26;;;;;;;;;;;;;;;18.17;41.09;95936.28;6104134;19;1101;-64
2022/10/22 06:18:29;;;;;;;;;;;;;;;18.17;41.51;95930.16;6122871;19;1845;-65
2022/10/22 06:20:35;;;;;;;;;;;;;;;18.17;41.50;95932.81;6124861;19;1024;-65
2022/10/22 06:22:38;;;;;;;;;;;;;;;18.17;41.13;95935.47;6124238;19;1013;-65
2022/10/22 06:24:42;;;;;;;;;;;;;;;18.17;41.08;95940.78;6121963;19;1504;-65
2022/10/22 06:26:50;;;;;;;;;;;;;;;18.17;41.57;95943.44;6105245;19;1391;-65
2022/10/22 06:28:54;;;;;;;;;;;;;;;18.17;41.17;95940.78;6123985;19;1107;-66
2022/10/22 06:30:59;;;;;;;;;;;;;;;18.18;41.49;95947.75;6124151;19;1014;-65
2022/10/22 06:33:02;;;;;;;;;;;;;;;18.17;41.12;95944.28;6123249;19;1057;-65
2022/10/22 06:35:06;;;;;;;;;;;;;;;18.17;41.26;95941.63;6124406;19;980;-65
2022/10/22 06:37:12;;;;;;;;;;;;;;;18.17;41.43;95935.47;6123835;19;1043;-65
2022/10/22 06:39:17;;;;;;;;;;;;;;;18.18;41.33;95937.13;6105643;19;1846;-65
2022/10/22 06:41:21;;;;;;;;;;;;;;;18.17;41.46;95954.09;6123255;19;1044;-65
2022/10/22 06:43:27;;;;;;;;;;;;;;;18.18;41.15;95953.06;6124043;19;1024;-65
2022/10/22 06:45:30;;;;;;;;;;;;;;;18.17;41.33;95948.78;6123462;19;1061;-65
2022/10/22 06:47:33;;;;;;;;;;;;;;;18.17;41.47;95943.44;6120802;19;1359;-65
2022/10/22 06:49:37;;;;;;;;;;;;;;;18.18;41.25;95947.75;6104596;19;1120;-65
2022/10/22 06:51:40;;;;;;;;;;;;;;;18.17;41.29;95946.09;6123325;19;1049;-65
2022/10/22 06:53:43;;;;;;;;;;;;;;;18.17;41.37;95944.28;6123667;19;1060;-64
2022/10/22 06:55:47;;;;;;;;;;;;;;;18.17;41.16;95938.94;6122837;19;1151;-64
2022/10/22 06:57:50;;;;;;;;;;;;;;;18.17;41.31;95938.94;6121846;19;1267;-64
2022/10/22 06:59:56;;;;;;;;;;;;;;;18.17;41.08;95938.13;6122545;19;995;-66
2022/10/22 07:02:00;;;;;;;;;;;;;;;18.16;41.13;95939.97;6106599;19;1171;-65
2022/10/22 07:04:03;;;;;;;;;;;;;;;18.18;41.21;95947.75;6123040;19;1022;-64
2022/10/22 07:06:08;;;;;;;;;;;;;;;18.18;41.20;95948.63;6122190;19;1347;-64
2022/10/22 07:08:11;;;;;;;;;;;;;;;18.18;41.16;95950.41;6121476;19;1056;-64
2022/10/22 07:10:14;;;;;;;;;;;;;;;18.17;41.17;95944.28;6122301;19;1088;-65
2022/10/22 07:12:18;;;;;;;;;;;;;;;18.18;41.42;95937.13;6102957;19;1562;-64
2022/10/22 07:14:21;;;;;;;;;;;;;;;18.17;41.31;95938.94;6122402;19;1051;-64
2022/10/22 07:16:27;;;;;;;;;;;;;;;18.18;41.42;95940.63;6122502;19;1123;-65
2022/10/22 07:18:31;;;;;;;;;;;;;;;18.17;41.46;95927.50;6121212;19;1853;-64
2022/10/22 07:20:34;;;;;;;;;;;;;;;18.17;41.11;95933.63;6122478;19;1025;-64
2022/10/22 07:22:37;;;;;;;;;;;;;;;18.18;41.28;95929.13;6122364;19;1044;-66
2022/10/22 07:24:41;;;;;;;;;;;;;;;18.18;41.07;95937.13;6101942;19;1519;-64
2022/10/22 07:26:44;;;;;;;;;;;;;;;18.17;41.06;95933.63;6122042;19;1071;-65
2022/10/22 07:28:47;;;;;;;;;;;;;;;18.17;41.44;95932.81;6120931;19;1389;-64
2022/10/22 07:30:51;;;;;;;;;;;;;;;18.18;41.08;95939.78;6122138;19;1103;-64
2022/10/22 07:32:57;;;;;;;;;;;;;;;18.17;41.48;95935.47;6121786;19;993;-64
2022/10/22 07:35:00;;;;;;;;;;;;;;;18.18;41.44;95937.13;6102547;19;1131;-64
2022/10/22 07:37:04;;;;;;;;;;;;;;;18.17;41.40;95933.63;6121433;19;1051;-65
2022/10/22 07:39:07;;;;;;;;;;;;;;;18.17;41.42;95928.31;6120992;19;1854;-65
2022/10/22 07:41:11;;;;;;;;;;;;;;;18.18;41.44;95926.47;6121796;19;1151;-64
2022/10/22 07:43:14;;;;;;;;;;;;;;;18.17;41.44;95932.81;6122045;19;1029;-65
2022/10/22 07:45:18;;;;;;;;;;;;;;;18.18;41.43;95929.13;6122101;19;1029;-64
2022/10/22 07:47:21;;;;;;;;;;;;;;;18.18;41.07;95934.47;6101694;19;1135;-65
2022/10/22 07:49:27;;;;;;;;;;;;;;;18.17;41.31;95923.00;6121972;19;1522;-64
2022/10/22 07:51:30;;;;;;;;;;;;;;;18.17;41.40;95912.34;6121631;19;1088;-64
2022/10/22 07:53:34;;;;;;;;;;;;;;;18.17;41.46;95908.88;6121248;19;1135;-65
2022/10/22 07:55:37;;;;;;;;;;;;;;;18.16;41.07;95908.03;6120727;19;1136;-65
2022/10/22 07:57:41;;;;;;;;;;;;;;;18.17;41.44;95900.91;6099803;19;1408;-64
2022/10/22 07:59:44;;;;;;;;;;;;;;;18.18;41.35;95897.22;6119914;19;1843;-64
2022/10/22 08:01:48;;;;;;;;;;;;;;;18.17;41.44;95903.56;6121221;19;962;-65
2022/10/22 08:03:51;;;;;;;;;;;;;;;18.17;41.42;95911.53;6121885;19;958;-64
2022/10/22 08:05:57;;;;;;;;;;;;;;;18.17;41.17;95911.53;6120234;19;1337;-64
2022/10/22 08:08:01;;;;;;;;;;;;;;;18.18;41.42;95910.50;6120181;19;1065;-64
2022/10/22 08:10:05;;;;;;;;;;;;;;;18.17;41.48;95914.19;6101494;19;1030;-64
2022/10/22 08:12:08;;;;;;;;;;;;;;;18.17;41.42;95912.34;6120887;19;1107;-64
2022/10/22 08:14:12;;;;;;;;;;;;;;;18.17;41.12;95900.91;6121123;19;1040;-64
2022/10/22 08:16:16;;;;;;;;;;;;;;;18.17;41.21;95899.06;6120979;19;958;-65
2022/10/22 08:18:19;;;;;;;;;;;;;;;18.18;41.10;95898.06;6120486;19;1099;-64
2022/10/22 08:20:22;;;;;;;;;;;;;;;18.17;41.11;95890.25;6099498;19;1900;-64
2022/10/22 08:22:28;;;;;;;;;;;;;;;18.17;41.48;95899.06;6120239;19;1142;-64
2022/10/22 08:24:31;;;;;;;;;;;;;;;18.18;41.49;95902.53;6118795;19;1541;-65
2022/10/22 08:26:35;;;;;;;;;;;;;;;18.18;41.48;95895.41;6120703;19;932;-64
2022/10/22 08:28:38;;;;;;;;;;;;;;;18.18;41.24;95897.22;6120280;19;1110;-65
2022/10/22 08:30:43;;;;;;;;;;;;;;;18.17;41.06;95888.41;6120622;19;1021;-64
2022/10/22 08:32:47;;;;;;;;;;;;;;;18.17;41.15;95880.44;6101178;19;1098;-64
2022/10/22 08:34:50;;;;;;;;;;;;;;;18.17;41.42;95888.41;6120337;19;1135;-65
2022/10/22 08:36:54;;;;;;;;;;;;;;;18.17;41.28;95883.09;6120717;19;1032;-65
2022/10/22 08:39:00;;;;;;;;;;;;;;;18.18;41.41;95883.91;6118283;19;1858;-65
2022/10/22 08:41:09;;;;;;;;;;;;;;;18.18;41.06;95886.56;6120066;19;1025;-64
2022/10/22 08:43:23;;;;;;;;;;;;;;;18.17;41.44;95884.94;6099616;19;1057;-64
2022/10/22 08:45:31;;;;;;;;;;;;;;;18.16;41.46;95889.44;6120002;19;1092;-64
2022/10/22 08:47:42;;;;;;;;;;;;;;;18.18;41.09;95892.75;6119871;19;1084;-66
2022/10/22 08:49:45;;;;;;;;;;;;;;;18.17;41.42;95882.28;6120445;19;979;-64
2022/10/22 08:51:49;;;;;;;;;;;;;;;18.17;41.42;95888.41;6120045;19;1147;-64
2022/10/22 08:54:01;;;;;;;;;;;;;;;18.17;41.37;95882.28;6110098;19;1028;-65
2022/10/22 08:56:07;;;;;;;;;;;;;;;18.18;41.07;95884.78;6114383;19;1107;-65
2022/10/22 08:58:17;;;;;;;;;;;;;;;18.17;41.12;95885.75;6119790;19;1080;-65
2022/10/22 09:00:22;;;;;;;;;;;;;;;18.16;41.46;95878.78;6118605;19;1870;-64
2022/10/22 09:02:32;;;;;;;;;;;;;;;18.16;41.48;95876.13;6119185;19;1065;-65
2022/10/22 09:04:40;;;;;;;;;;;;;;;18.17;41.07;95884.94;6119781;19;1049;-65
2022/10/22 09:06:46;;;;;;;;;;;;;;;18.18;41.19;95889.25;6101248;19;1283;-66
2022/10/22 09:08:49;;;;;;;;;;;;;;;18.17;41.15;95896.41;6117761;19;1122;-66
2022/10/22 09:10:56;;;;;;;;;;;;;;;18.16;41.15;95878.78;6119717;19;1564;-64
2022/10/22 09:13:02;;;;;;;;;;;;;;;18.17;41.02;95879.63;6119709;19;1032;-65
2022/10/22 09:15:05;;;;;;;;;;;;;;;18.17;41.46;95879.63;6119435;19;1030;-64
2022/10/22 09:17:15;;;;;;;;;;;;;;;18.17;41.21;95875.13;6099404;19;1147;-65
2022/10/22 09:19:22;;;;;;;;;;;;;;;18.17;41.17;95871.63;6118616;19;1846;-64
2022/10/22 09:21:30;;;;;;;;;;;;;;;18.17;41.15;95869.78;6117430;19;1120;-65
2022/10/22 09:23:38;;;;;;;;;;;;;;;18.16;41.06;95876.13;6118794;19;1037;-65
2022/10/22 09:25:41;;;;;;;;;;;;;;;18.16;41.47;95873.47;6119562;19;1147;-65
2022/10/22 09:27:45;;;;;;;;;;;;;;;18.16;41.04;95870.00;6109634;19;1036;-65
2022/10/22 09:29:51;;;;;;;;;;;;;;;18.17;41.43;95869.78;6108439;19;1032;-64
2022/10/22 09:31:54;;;;;;;;;;;;;;;18.17;41.17;95868.97;6118849;19;1009;-65
2022/10/22 09:33:58;;;;;;;;;;;;;;;18.16;41.52;95857.50;6117767;19;1466;-64
2022/10/22 09:36:04;;;;;;;;;;;;;;;18.16;41.09;95856.69;6117409;19;1431;-65
2022/10/22 09:38:08;;;;;;;;;;;;;;;18.16;41.08;95854.03;6117089;19;1393;-64
2022/10/22 09:40:16;;;;;;;;;;;;;;;18.17;41.13;95847.69;6098007;19;1846;-65
2022/10/22 09:42:20;;;;;;;;;;;;;;;18.17;41.46;95842.38;6119271;19;1028;-64
2022/10/22 09:44:24;;;;;;;;;;;;;;;18.17;41.29;95853.00;6118244;19;1045;-64
2022/10/22 09:46:31;;;;;;;;;;;;;;;18.17;41.09;95847.69;6116761;19;1439;-64
2022/10/22 09:48:36;;;;;;;;;;;;;;;18.17;41.31;95835.22;6118494;19;1073;-65
2022/10/22 09:50:42;;;;;;;;;;;;;;;18.17;41.26;95832.56;6108691;19;1072;-65
2022/10/22 09:52:46;;;;;;;;;;;;;;;18.17;41.09;95823.75;6107940;19;1185;-64
2022/10/22 09:54:54;;;;;;;;;;;;;;;18.17;41.48;95824.56;6118355;19;1075;-65
2022/10/22 09:56:59;;;;;;;;;;;;;;;18.18;41.17;95822.75;6119315;19;1088;-65
2022/10/22 09:59:03;;;;;;;;;;;;;;;18.17;41.47;95821.09;6118579;19;946;-64
2022/10/22 10:01:06;;;;;;;;;;;;;;;18.17;41.50;95821.09;6118114;19;1014;-64
2022/10/22 10:03:17;;;;;;;;;;;;;;;18.17;41.08;95821.09;6098896;19;1144;-64
2022/10/22 10:05:22;;;;;;;;;;;;;;;18.18;41.05;95833.38;6117840;19;1322;-65
2022/10/22 10:07:26;;;;;;;;;;;;;;;18.16;41.42;95825.59;6117239;19;1160;-64
2022/10/22 10:09:33;;;;;;;;;;;;;;;18.17;40.99;95816.59;6117833;19;1194;-64
2022/10/22 10:11:39;;;;;;;;;;;;;;;18.18;41.47;95812.09;6118132;19;1053;-64
2022/10/22 10:13:48;;;;;;;;;;;;;;;18.18;41.21;95809.44;6098493;19;1076;-66
2022/10/22 10:15:54;;;;;;;;;;;;;;;18.17;41.49;95813.94;6117504;19;1064;-64
2022/10/22 10:18:03;;;;;;;;;;;;;;;18.17;41.35;95808.63;6118021;19;1087;-64
2022/10/22 10:20:18;;;;;;;;;;;;;;;18.17;41.00;95815.78;6117066;19;1841;-65
2022/10/22 10:22:29;;;;;;;;;;;;;;;18.17;41.13;95821.91;6117932;19;1012;-65
2022/10/22 10:24:38;;;;;;;;;;;;;;;18.16;41.21;95809.63;6105807;19;1504;-65
2022/10/22 10:26:46;;;;;;;;;;;;;;;18.17;41.48;95808.63;6108220;19;1140;-64
2022/10/22 10:28:56;;;;;;;;;;;;;;;18.18;41.49;95801.47;6117796;19;1041;-65
2022/10/22 10:31:05;;;;;;;;;;;;;;;18.17;41.38;95799.81;6117867;19;973;-65
2022/10/22 10:33:17;;;;;;;;;;;;;;;18.17;41.28;95795.31;6121177;19;1123;-64
2022/10/22 10:35:27;;;;;;;;;;;;;;;18.19;41.02;95795.16;6124440;19;1003;-64
2022/10/22 10:37:32;;;;;;;;;;;;;;;18.17;41.21;95779.34;6103083;19;1048;-64
2022/10/22 10:39:41;;;;;;;;;;;;;;;18.17;41.49;95783.84;6122916;19;1830;-65
2022/10/22 10:41:49;;;;;;;;;;;;;;;18.17;41.06;95783.84;6124176;19;1015;-65
2022/10/22 10:43:58;;;;;;;;;;;;;;;18.17;41.08;95773.22;6122984;19;1033;-65
2022/10/22 10:46:07;;;;;;;;;;;;;;;18.16;41.23;95763.59;6123026;19;1061;-64
2022/10/22 10:48:18;;;;;;;;;;;;;;;18.18;41.05;95751.78;6103694;19;1252;-64
2022/10/22 10:50:28;;;;;;;;;;;;;;;18.18;41.05;95764.22;6122898;19;1085;-64
2022/10/22 10:52:37;;;;;;;;;;;;;;;18.19;41.35;95755.25;6123169;19;1017;-64
2022/10/22 10:54:45;;;;;;;;;;;;;;;18.18;41.41;95745.59;6123062;19;1057;-64
2022/10/22 10:56:52;;;;;;;;;;;;;;;18.17;41.35;95747.44;6123161;19;1131;-64
2022/10/22 10:59:03;;;;;;;;;;;;;;;18.18;41.21;95742.94;6112005;19;1099;-65
2022/10/22 11:01:12;;;;;;;;;;;;;;;18.19;41.43;95739.28;6119523;19;1870;-65